Time;durP1;ratioP1;P1;durP2;ratioP2;P2;SDS_P1;SDS_P2;PMS_P1;PMS_P2;Temp;Humidity;BMP_temperature;BMP_pressure;BME280_temperature;BME280_humidity;BME280_pressure;Samples;Min_cycle;Max_cycle;Signal;HPM_P1;HPM_P2
2022/01/20 00:00:44;;;;;;;12.93;3.10;;;24.00;93.70;;;;;;5031761;28;20022;-73
2022/01/20 00:03:19;;;;;;;18.80;3.65;;;23.70;94.00;;;;;;5031185;28;20061;-70
2022/01/20 00:27:57;;;;;;;20.42;3.10;;;22.50;99.10;;;;;;5031321;28;20029;-72
2022/01/20 00:37:14;;;;;;;18.58;3.90;;;22.50;99.90;;;;;;5031033;28;20032;-70
2022/01/20 00:38:15;;;;;;;34.63;5.95;;;22.40;99.90;;;;;;5030450;28;20025;-73
2022/01/20 00:40:43;;;;;;;44.08;6.35;;;22.20;99.90;;;;;;5029917;28;20112;-73
2022/01/20 00:43:10;;;;;;;34.17;5.10;;;22.10;99.90;;;;;;5029062;28;20029;-72
2022/01/20 00:45:37;;;;;;;57.67;10.40;;;21.90;99.90;;;;;;5012686;28;20437;-72
2022/01/20 00:48:05;;;;;;;21.15;4.90;;;21.80;99.90;;;;;;5030087;28;20022;-77
2022/01/20 00:50:35;;;;;;;26.50;4.43;;;21.50;99.90;;;;;;5029536;28;20082;-71
2022/01/20 00:53:03;;;;;;;21.90;4.55;;;21.50;99.90;;;;;;5030595;28;20045;-76
2022/01/20 00:55:31;;;;;;;21.80;4.30;;;21.60;99.90;;;;;;5031235;28;20505;-73
2022/01/20 00:57:59;;;;;;;20.33;4.47;;;21.60;99.90;;;;;;5031122;28;20026;-72
2022/01/20 01:00:26;;;;;;;30.20;5.68;;;21.60;99.90;;;;;;5029991;28;20071;-71
2022/01/20 01:02:56;;;;;;;28.88;5.60;;;21.60;99.90;;;;;;5030319;28;20025;-73
2022/01/20 01:05:25;;;;;;;24.38;4.45;;;21.70;99.90;;;;;;5030912;28;20056;-71
2022/01/20 01:07:55;;;;;;;22.90;5.53;;;21.70;99.90;;;;;;5029353;28;20046;-72
2022/01/20 01:10:33;;;;;;;26.90;4.90;;;21.60;99.90;;;;;;5030079;28;20108;-73
2022/01/20 01:13:11;;;;;;;24.58;4.72;;;21.50;99.90;;;;;;5029958;28;20027;-68
2022/01/20 01:15:43;;;;;;;22.02;3.33;;;21.50;99.90;;;;;;5030896;28;20516;-70
2022/01/20 01:23:39;;;;;;;29.02;3.92;;;21.70;99.90;;;;;;5031267;28;20018;-76
2022/01/20 01:26:10;;;;;;;22.23;4.13;;;21.80;99.70;;;;;;5031067;28;20120;-71
2022/01/20 01:28:38;;;;;;;25.27;4.70;;;21.90;99.10;;;;;;5031420;28;20478;-72
2022/01/20 01:33:50;;;;;;;23.73;3.63;;;22.30;98.00;;;;;;5031214;28;20556;-73
2022/01/20 01:36:20;;;;;;;17.73;3.72;;;22.40;97.30;;;;;;5030904;28;20510;-69
2022/01/20 01:38:47;;;;;;;20.65;4.00;;;22.60;96.10;;;;;;5031175;28;20083;-76
2022/01/20 01:41:26;;;;;;;24.88;3.95;;;22.70;95.60;;;;;;5030840;28;20017;-69
2022/01/20 01:43:55;;;;;;;22.35;3.15;;;22.90;95.30;;;;;;5031305;28;20018;-68
2022/01/20 01:46:24;;;;;;;11.73;2.78;;;23.20;94.30;;;;;;5031230;28;20052;-68
2022/01/20 01:48:51;;;;;;;18.60;3.20;;;23.40;93.30;;;;;;5031342;28;20021;-69
2022/01/20 01:51:18;;;;;;;17.63;3.10;;;23.80;92.10;;;;;;5030924;28;20041;-69
2022/01/20 01:53:46;;;;;;;14.30;2.85;;;23.90;91.90;;;;;;5030790;28;20403;-72
2022/01/20 01:56:13;;;;;;;20.17;4.40;;;24.20;91.20;;;;;;5030982;28;20470;-75
2022/01/20 01:58:40;;;;;;;13.15;2.42;;;24.40;90.60;;;;;;5030839;28;20437;-72
2022/01/20 02:01:08;;;;;;;14.90;2.95;;;24.60;89.60;;;;;;5031270;28;20477;-70
2022/01/20 02:03:44;;;;;;;15.38;3.35;;;24.80;89.50;;;;;;5033695;28;20034;-73
2022/01/20 02:06:50;;;;;;;18.95;3.15;;;25.10;88.30;;;;;;5035399;28;20045;-75
2022/01/20 02:20:00;;;;;;;19.92;3.45;;;25.30;90.90;;;;;;5034655;28;20101;-70
2022/01/20 02:22:27;;;;;;;23.88;3.20;;;25.50;91.20;;;;;;5017028;28;20096;-71
2022/01/20 02:24:54;;;;;;;14.20;2.75;;;25.90;91.00;;;;;;5034451;28;20413;-69
2022/01/20 02:27:22;;;;;;;16.08;3.70;;;26.30;91.60;;;;;;5034128;28;20387;-69
2022/01/20 02:29:49;;;;;;;15.20;3.25;;;26.70;88.30;;;;;;5033655;28;20029;-70
2022/01/20 02:32:16;;;;;;;18.10;3.33;;;26.70;87.40;;;;;;5034380;28;20109;-70
2022/01/20 02:34:44;;;;;;;17.00;3.20;;;26.60;87.70;;;;;;5033741;28;20021;-76
2022/01/20 02:37:14;;;;;;;21.90;2.70;;;26.90;89.10;;;;;;5033569;28;20378;-75
2022/01/20 02:40:03;;;;;;;12.98;2.47;;;27.10;86.70;;;;;;5034032;28;20021;-75
2022/01/20 02:45:15;;;;;;;20.25;3.65;;;26.80;87.00;;;;;;5034085;28;20040;-75
2022/01/20 02:47:42;;;;;;;13.30;3.25;;;26.50;88.10;;;;;;5033873;28;20021;-74
2022/01/20 02:50:10;;;;;;;17.92;3.03;;;26.10;86.90;;;;;;5033843;28;20032;-75
2022/01/20 02:52:37;;;;;;;9.98;2.92;;;25.90;86.30;;;;;;5033747;28;20212;-74
2022/01/20 02:55:05;;;;;;;12.00;3.22;;;25.90;86.70;;;;;;5034140;28;20100;-76
2022/01/20 02:57:33;;;;;;;11.63;2.88;;;25.80;86.80;;;;;;5033961;28;20086;-77
2022/01/20 03:00:00;;;;;;;18.48;3.17;;;25.80;88.00;;;;;;5033681;28;20030;-70
2022/01/20 03:02:27;;;;;;;15.15;2.25;;;25.70;87.70;;;;;;5033583;28;20164;-71
2022/01/20 03:04:54;;;;;;;15.95;3.33;;;25.50;86.80;;;;;;5033525;28;20036;-74
2022/01/20 03:07:22;;;;;;;14.98;3.00;;;25.40;87.50;;;;;;5033555;28;20053;-76
2022/01/20 03:09:49;;;;;;;12.13;2.55;;;25.30;86.90;;;;;;5033884;28;20018;-75
2022/01/20 03:12:16;;;;;;;19.45;3.20;;;25.40;87.80;;;;;;5033567;28;20104;-73
2022/01/20 03:14:44;;;;;;;22.27;4.53;;;25.50;88.20;;;;;;5032706;28;20474;-67
2022/01/20 03:17:13;;;;;;;16.45;2.92;;;25.60;88.00;;;;;;5033533;28;20418;-67
2022/01/20 03:19:42;;;;;;;18.92;3.33;;;25.60;86.70;;;;;;5033135;28;20055;-74
2022/01/20 03:22:09;;;;;;;12.20;2.53;;;25.80;86.90;;;;;;5032979;28;20118;-72
2022/01/20 03:24:36;;;;;;;14.63;2.33;;;26.00;87.00;;;;;;5033043;28;20039;-74
2022/01/20 03:27:04;;;;;;;10.95;2.92;;;26.20;86.90;;;;;;5033036;28;20026;-74
2022/01/20 03:29:31;;;;;;;12.98;3.40;;;26.50;86.20;;;;;;5015127;28;20486;-74
2022/01/20 03:31:59;;;;;;;20.40;4.13;;;26.50;85.60;;;;;;5033029;28;20099;-67
2022/01/20 03:34:26;;;;;;;19.08;3.05;;;26.60;88.70;;;;;;5033237;28;20109;-74
2022/01/20 03:36:54;;;;;;;21.77;3.35;;;26.70;89.90;;;;;;5033156;28;20021;-72
2022/01/20 03:39:21;;;;;;;14.75;2.40;;;27.00;90.10;;;;;;5032931;28;20029;-72
2022/01/20 03:41:49;;;;;;;16.17;2.30;;;27.00;89.80;;;;;;5032804;28;20109;-74
2022/01/20 03:44:16;;;;;;;15.05;2.80;;;27.10;88.60;;;;;;5019013;28;20410;-72
2022/01/20 03:46:44;;;;;;;15.43;3.28;;;27.10;87.90;;;;;;5012988;28;20033;-72
2022/01/20 03:49:26;;;;;;;14.40;3.10;;;27.00;88.00;;;;;;5013015;28;20014;-74
2022/01/20 03:51:55;;;;;;;16.90;3.33;;;26.90;86.60;;;;;;5012905;28;20073;-73
2022/01/20 03:54:22;;;;;;;12.07;2.35;;;27.20;86.80;;;;;;5012991;28;20033;-70
2022/01/20 03:56:49;;;;;;;13.55;2.72;;;27.80;86.10;;;;;;5012964;28;20026;-74
2022/01/20 03:59:17;;;;;;;13.02;2.85;;;28.30;84.20;;;;;;5012802;28;20022;-70
2022/01/20 04:01:45;;;;;;;12.82;2.67;;;28.40;84.70;;;;;;5012865;28;20453;-69
2022/01/20 04:04:12;;;;;;;12.65;2.17;;;28.90;84.70;;;;;;5012661;28;20108;-73
2022/01/20 04:06:40;;;;;;;12.27;2.38;;;29.50;80.90;;;;;;5012608;28;20050;-73
2022/01/20 04:09:07;;;;;;;10.65;1.80;;;29.80;79.30;;;;;;5012875;28;20025;-75
2022/01/20 04:11:35;;;;;;;12.02;2.47;;;29.70;78.00;;;;;;5012717;28;20370;-69
2022/01/20 04:14:03;;;;;;;11.60;2.22;;;29.50;77.10;;;;;;5012626;28;20025;-73
2022/01/20 04:16:37;;;;;;;13.20;2.28;;;29.00;79.10;;;;;;5012306;28;20553;-71
2022/01/20 04:19:09;;;;;;;12.25;2.63;;;29.00;78.60;;;;;;5012109;28;20475;-76
2022/01/20 04:21:39;;;;;;;15.75;2.95;;;29.00;78.70;;;;;;5012450;28;20076;-74
2022/01/20 04:24:07;;;;;;;12.40;2.50;;;28.70;79.90;;;;;;5012494;28;20097;-74
2022/01/20 04:26:35;;;;;;;11.90;2.55;;;28.60;79.90;;;;;;5012357;28;20029;-73
2022/01/20 04:29:05;;;;;;;19.30;3.65;;;28.40;80.90;;;;;;5012612;28;20022;-72
2022/01/20 04:31:34;;;;;;;13.75;2.33;;;28.50;80.60;;;;;;5012515;28;20037;-70
2022/01/20 04:34:02;;;;;;;12.02;2.55;;;28.50;79.10;;;;;;5012111;28;20501;-76
2022/01/20 04:36:33;;;;;;;9.18;1.95;;;28.50;79.50;;;;;;5012214;28;20033;-76
2022/01/20 04:39:02;;;;;;;7.33;1.87;;;28.30;80.50;;;;;;5011969;28;20113;-77
2022/01/20 04:41:30;;;;;;;16.80;2.13;;;28.10;80.40;;;;;;5012327;28;20026;-74
2022/01/20 04:43:58;;;;;;;16.60;3.08;;;27.80;78.70;;;;;;5012367;28;20022;-75
2022/01/20 04:57:00;;;;;;;12.50;2.35;;;27.00;80.90;;;;;;5011645;28;20033;-76
2022/01/20 04:57:22;;;;;;;14.60;3.20;;;26.60;85.00;;;;;;5011970;28;20568;-71
2022/01/20 04:59:52;;;;;;;15.35;3.05;;;26.60;85.00;;;;;;5011933;28;20094;-73
2022/01/20 05:02:19;;;;;;;15.48;3.15;;;26.70;85.30;;;;;;5011648;28;20390;-74
2022/01/20 05:04:47;;;;;;;12.88;2.88;;;27.00;84.50;;;;;;5011381;28;20038;-72
2022/01/20 05:07:24;;;;;;;17.83;3.30;;;27.30;85.20;;;;;;5011962;28;20042;-73
2022/01/20 05:09:54;;;;;;;19.05;3.58;;;27.90;85.40;;;;;;5011697;28;20109;-77
2022/01/20 05:12:28;;;;;;;12.05;3.63;;;28.50;82.30;;;;;;5011572;28;20422;-72
2022/01/20 05:14:56;;;;;;;13.55;3.25;;;29.20;80.70;;;;;;5012048;28;20026;-73
2022/01/20 05:17:24;;;;;;;14.23;2.42;;;30.00;77.70;;;;;;5011586;28;20109;-69
2022/01/20 05:19:51;;;;;;;14.52;3.80;;;29.80;77.80;;;;;;5011038;28;20044;-73
2022/01/20 05:22:18;;;;;;;16.17;3.45;;;29.70;78.80;;;;;;5011389;28;20026;-70
2022/01/20 05:24:45;;;;;;;12.10;3.20;;;29.30;79.10;;;;;;5011212;28;20069;-78
2022/01/20 05:27:13;;;;;;;15.88;3.75;;;29.20;79.60;;;;;;5010603;28;20030;-75
2022/01/20 05:29:40;;;;;;;12.18;3.45;;;29.60;79.10;;;;;;5013291;28;20068;-72
2022/01/20 05:32:08;;;;;;;12.57;2.60;;;29.40;78.70;;;;;;5019764;28;20045;-75
2022/01/20 05:34:36;;;;;;;12.80;3.25;;;29.30;77.40;;;;;;5004159;28;20040;-74
2022/01/20 05:37:03;;;;;;;17.85;3.05;;;29.30;76.90;;;;;;5021720;28;20014;-76
2022/01/20 05:39:31;;;;;;;14.43;2.83;;;29.70;76.70;;;;;;5023147;28;20022;-70
2022/01/20 05:41:58;;;;;;;13.38;2.42;;;30.10;75.70;;;;;;5024774;28;20049;-71
2022/01/20 05:44:26;;;;;;;12.15;2.85;;;30.10;76.50;;;;;;5015068;28;20036;-78
2022/01/20 05:46:54;;;;;;;15.25;3.60;;;30.40;74.50;;;;;;5015360;28;20409;-76
2022/01/20 05:49:21;;;;;;;11.88;3.20;;;30.30;75.70;;;;;;5015278;28;20033;-72
2022/01/20 05:51:52;;;;;;;15.13;3.35;;;30.10;75.50;;;;;;5014960;28;20032;-70
2022/01/20 05:54:20;;;;;;;15.05;3.03;;;30.20;76.70;;;;;;5015100;28;20049;-76
2022/01/20 05:56:48;;;;;;;15.13;3.83;;;30.60;76.00;;;;;;5015180;28;20058;-78
2022/01/20 05:59:16;;;;;;;17.95;4.25;;;30.40;75.00;;;;;;5015263;28;20478;-79
2022/01/20 06:01:51;;;;;;;18.25;4.13;;;30.20;75.10;;;;;;5014975;28;20471;-72
2022/01/20 06:04:19;;;;;;;16.67;3.55;;;30.10;76.00;;;;;;5014582;28;20407;-72
2022/01/20 06:06:46;;;;;;;18.48;4.03;;;30.10;75.00;;;;;;5014774;28;20046;-74
2022/01/20 06:09:13;;;;;;;16.92;3.70;;;29.80;75.20;;;;;;4997634;28;20467;-78
2022/01/20 06:11:42;;;;;;;19.02;3.63;;;29.20;76.10;;;;;;5015023;28;20581;-80
2022/01/20 06:14:10;;;;;;;15.65;3.80;;;28.60;78.20;;;;;;5015078;28;20018;-71
2022/01/20 06:16:38;;;;;;;15.85;3.75;;;28.50;78.80;;;;;;5015216;28;20040;-78
2022/01/20 06:19:06;;;;;;;17.75;3.97;;;28.30;78.00;;;;;;4996873;28;20028;-69
2022/01/20 06:21:33;;;;;;;18.67;3.42;;;27.80;80.30;;;;;;5014527;28;20088;-77
2022/01/20 06:24:00;;;;;;;19.70;4.03;;;27.70;81.00;;;;;;5015259;28;20031;-72
2022/01/20 06:26:28;;;;;;;17.50;3.75;;;27.70;81.20;;;;;;5015344;28;20034;-79
2022/01/20 06:28:55;;;;;;;15.02;3.00;;;27.50;81.60;;;;;;5014931;28;20174;-65
2022/01/20 06:31:22;;;;;;;19.20;4.35;;;27.50;81.20;;;;;;5014147;28;20076;-74
2022/01/20 06:33:50;;;;;;;19.88;3.55;;;27.40;82.10;;;;;;5013956;28;20104;-75
2022/01/20 06:36:17;;;;;;;21.33;3.95;;;27.50;80.30;;;;;;5014789;28;20048;-74
2022/01/20 06:38:44;;;;;;;20.02;3.45;;;27.20;81.70;;;;;;5014264;28;20363;-74
2022/01/20 06:41:12;;;;;;;19.73;3.33;;;26.90;81.20;;;;;;5014250;28;20026;-68
2022/01/20 06:43:39;;;;;;;20.85;3.83;;;26.90;80.30;;;;;;5014364;28;20108;-71
2022/01/20 06:46:06;;;;;;;16.08;4.22;;;26.70;81.20;;;;;;5014237;28;20037;-71
2022/01/20 06:48:34;;;;;;;21.23;3.90;;;26.70;81.70;;;;;;5013403;28;20029;-74
2022/01/20 06:51:01;;;;;;;15.07;3.22;;;26.70;81.20;;;;;;5013564;28;20122;-68
2022/01/20 06:53:28;;;;;;;11.32;2.30;;;26.70;79.60;;;;;;5013851;28;20462;-70
2022/01/20 06:55:55;;;;;;;16.23;4.18;;;26.70;79.60;;;;;;5013854;28;20036;-72
2022/01/20 06:58:23;;;;;;;15.60;4.10;;;26.70;80.10;;;;;;5013831;28;20045;-72
2022/01/20 07:00:50;;;;;;;16.67;2.90;;;26.80;81.30;;;;;;5013904;28;20488;-69
2022/01/20 07:03:17;;;;;;;17.25;3.75;;;26.90;79.80;;;;;;5014142;28;20386;-73
2022/01/20 07:05:45;;;;;;;16.00;3.20;;;26.60;81.10;;;;;;5014031;28;20041;-68
2022/01/20 07:08:12;;;;;;;19.10;3.80;;;26.40;80.20;;;;;;5013761;28;20124;-68
2022/01/20 07:10:40;;;;;;;13.18;2.88;;;26.20;81.30;;;;;;5013891;28;20487;-72
2022/01/20 07:13:07;;;;;;;20.20;3.45;;;26.00;80.70;;;;;;5027266;28;20075;-72
2022/01/20 07:15:34;;;;;;;15.27;3.75;;;26.00;81.50;;;;;;5027070;28;20021;-69
2022/01/20 07:18:03;;;;;;;9.95;2.75;;;26.00;81.50;;;;;;5029194;28;20014;-67
2022/01/20 07:20:30;;;;;;;11.82;2.53;;;25.90;80.30;;;;;;5033503;28;20025;-73
2022/01/20 07:22:57;;;;;;;17.08;2.95;;;25.80;80.60;;;;;;5033033;28;20021;-68
2022/01/20 07:25:25;;;;;;;12.02;2.65;;;25.70;80.30;;;;;;5033861;28;20037;-74
2022/01/20 07:27:52;;;;;;;12.45;2.45;;;25.70;80.30;;;;;;5033754;28;20014;-72
2022/01/20 07:30:19;;;;;;;11.52;2.65;;;25.80;80.40;;;;;;5033829;28;20388;-72
2022/01/20 07:32:47;;;;;;;12.13;2.63;;;25.90;79.60;;;;;;5034269;28;20024;-73
2022/01/20 07:35:14;;;;;;;15.15;2.80;;;25.70;80.30;;;;;;5033583;28;20108;-73
2022/01/20 07:37:42;;;;;;;13.48;3.03;;;25.60;79.40;;;;;;5033509;28;20385;-74
2022/01/20 07:40:10;;;;;;;15.77;3.10;;;25.30;79.20;;;;;;5032956;28;20029;-69
2022/01/20 07:42:37;;;;;;;13.88;3.22;;;25.20;80.00;;;;;;5032530;28;20648;-74
2022/01/20 07:45:05;;;;;;;7.47;2.25;;;25.10;80.70;;;;;;5033123;28;20469;-73
2022/01/20 07:47:34;;;;;;;15.65;3.17;;;25.20;80.10;;;;;;5027601;28;20032;-72
2022/01/20 07:50:01;;;;;;;15.25;2.83;;;25.30;80.60;;;;;;5030665;28;20036;-72
2022/01/20 07:52:29;;;;;;;14.15;3.35;;;25.20;80.70;;;;;;5032205;28;20026;-68
2022/01/20 07:54:56;;;;;;;10.25;1.85;;;25.00;81.20;;;;;;5032386;28;20071;-71
2022/01/20 07:57:24;;;;;;;14.80;2.90;;;25.00;81.70;;;;;;5031960;28;20025;-68
2022/01/20 07:59:51;;;;;;;16.58;3.55;;;24.90;83.10;;;;;;5031654;28;20025;-74
2022/01/20 08:02:18;;;;;;;17.23;3.30;;;24.90;83.30;;;;;;5032247;28;20543;-75
2022/01/20 08:04:46;;;;;;;24.15;4.65;;;24.90;84.00;;;;;;5031929;28;20044;-70
2022/01/20 08:07:13;;;;;;;14.55;3.47;;;24.90;84.90;;;;;;5031288;28;20406;-75
2022/01/20 08:09:40;;;;;;;16.73;3.60;;;24.80;84.70;;;;;;5031694;28;20024;-71
2022/01/20 08:12:08;;;;;;;11.90;2.50;;;24.60;85.30;;;;;;5031621;28;20037;-74
2022/01/20 08:14:35;;;;;;;17.42;3.00;;;24.50;85.80;;;;;;5032136;28;20071;-76
2022/01/20 08:17:03;;;;;;;21.35;3.05;;;24.50;86.00;;;;;;5019462;28;20013;-75
2022/01/20 08:19:30;;;;;;;18.55;2.88;;;24.50;85.80;;;;;;5031979;28;20029;-76
2022/01/20 08:21:58;;;;;;;19.67;3.25;;;24.40;85.10;;;;;;5031612;28;20100;-74
2022/01/20 08:24:25;;;;;;;14.13;3.58;;;24.30;85.20;;;;;;5031364;28;20585;-74
2022/01/20 08:26:52;;;;;;;20.20;5.13;;;24.10;86.10;;;;;;5031280;28;20119;-71
2022/01/20 08:29:19;;;;;;;16.40;2.95;;;24.00;86.00;;;;;;5032142;28;20048;-67
2022/01/20 08:31:47;;;;;;;17.95;4.03;;;24.00;86.10;;;;;;5031803;28;20021;-71
2022/01/20 08:34:15;;;;;;;20.10;4.10;;;23.90;86.70;;;;;;5031894;28;20021;-74
2022/01/20 08:36:44;;;;;;;16.98;3.03;;;23.80;87.20;;;;;;5031346;28;20364;-73
2022/01/20 08:40:12;;;;;;;12.82;3.55;;;23.90;87.70;;;;;;5031315;28;20025;-73
2022/01/20 08:42:10;;;;;;;21.27;4.18;;;23.80;88.80;;;;;;5013868;28;20045;-75
2022/01/20 08:44:37;;;;;;;20.42;3.35;;;23.80;90.50;;;;;;5031304;28;20095;-75
2022/01/20 08:47:14;;;;;;;21.25;3.85;;;23.70;91.80;;;;;;5027285;28;20105;-70
2022/01/20 08:49:41;;;;;;;15.25;3.38;;;23.60;92.10;;;;;;5030028;28;20518;-66
2022/01/20 08:52:09;;;;;;;17.88;3.20;;;23.50;92.40;;;;;;5031376;28;20104;-76
2022/01/20 08:54:36;;;;;;;19.45;4.13;;;23.30;92.60;;;;;;5031544;28;20506;-76
2022/01/20 08:57:04;;;;;;;25.90;5.13;;;23.10;93.00;;;;;;5031274;28;20458;-77
2022/01/20 08:59:32;;;;;;;19.38;3.97;;;23.00;93.30;;;;;;5031744;28;20027;-76
2022/01/20 09:01:59;;;;;;;19.98;4.50;;;23.00;93.20;;;;;;5031464;28;20017;-76
2022/01/20 09:04:26;;;;;;;20.20;4.28;;;22.90;93.30;;;;;;5031313;28;20107;-75
2022/01/20 09:06:54;;;;;;;14.15;3.65;;;22.90;93.30;;;;;;5030648;28;20037;-77
2022/01/20 09:09:22;;;;;;;23.98;4.93;;;22.80;93.50;;;;;;5030974;28;20359;-76
2022/01/20 09:12:03;;;;;;;17.42;3.67;;;22.80;93.70;;;;;;5030521;28;20048;-76
2022/01/20 09:17:16;;;;;;;22.65;4.03;;;22.70;93.80;;;;;;5031770;28;20095;-76
2022/01/20 09:19:43;;;;;;;22.02;4.50;;;22.60;93.70;;;;;;5013191;28;20026;-74
2022/01/20 09:22:11;;;;;;;19.00;3.75;;;22.60;93.90;;;;;;5030886;28;20030;-78
2022/01/20 09:24:39;;;;;;;19.52;3.15;;;22.60;94.00;;;;;;5031172;28;20029;-75
2022/01/20 09:27:06;;;;;;;24.80;4.10;;;22.50;94.20;;;;;;5030795;28;20025;-77
2022/01/20 09:29:34;;;;;;;23.70;3.88;;;22.50;94.60;;;;;;5029885;28;20509;-74
2022/01/20 09:32:04;;;;;;;25.13;5.07;;;22.50;95.00;;;;;;5029882;28;20026;-74
2022/01/20 09:34:31;;;;;;;28.02;6.57;;;22.50;94.90;;;;;;5023636;28;20018;-76
2022/01/20 09:36:59;;;;;;;25.23;5.13;;;22.60;95.00;;;;;;5030343;28;20030;-78
2022/01/20 09:39:26;;;;;;;17.60;4.25;;;22.50;95.20;;;;;;5030559;28;20036;-78
2022/01/20 09:41:54;;;;;;;23.88;4.88;;;22.50;95.50;;;;;;5029489;28;20026;-77
2022/01/20 09:44:21;;;;;;;28.58;6.28;;;22.40;95.50;;;;;;5030930;28;20021;-78
2022/01/20 09:46:49;;;;;;;22.38;4.15;;;22.40;95.60;;;;;;5030960;28;20029;-77
2022/01/20 09:49:16;;;;;;;30.33;4.97;;;22.40;95.60;;;;;;5030352;28;20017;-73
2022/01/20 09:51:44;;;;;;;26.50;4.00;;;22.30;95.60;;;;;;5029329;28;20022;-79
2022/01/20 09:54:12;;;;;;;23.42;3.97;;;22.30;95.20;;;;;;5028972;28;20028;-69
2022/01/20 09:56:41;;;;;;;30.90;5.05;;;22.30;95.00;;;;;;5029185;28;20092;-79
2022/01/20 09:59:09;;;;;;;28.10;5.78;;;22.30;95.20;;;;;;5029283;28;20102;-78
2022/01/20 10:01:47;;;;;;;31.30;5.93;;;22.30;95.20;;;;;;5029482;28;20674;-78
2022/01/20 10:04:23;;;;;;;21.83;4.32;;;22.40;95.20;;;;;;5029313;28;20025;-74
2022/01/20 10:07:15;;;;;;;27.05;4.35;;;22.40;95.30;;;;;;5029995;28;20053;-67
2022/01/20 10:09:49;;;;;;;19.17;4.53;;;22.40;95.30;;;;;;5030908;28;20087;-80
2022/01/20 10:12:19;;;;;;;25.27;4.15;;;22.30;95.20;;;;;;5030506;28;20486;-77
2022/01/20 10:14:49;;;;;;;21.20;4.15;;;22.30;95.40;;;;;;5030975;28;20096;-74
2022/01/20 10:17:19;;;;;;;20.30;5.88;;;22.20;95.40;;;;;;5030809;28;20104;-75
2022/01/20 10:19:51;;;;;;;20.13;4.18;;;22.20;95.50;;;;;;5030687;28;20025;-79
2022/01/20 10:22:24;;;;;;;30.60;5.60;;;22.20;95.50;;;;;;5030525;28;20018;-79
2022/01/20 10:25:11;;;;;;;22.45;4.75;;;22.20;95.50;;;;;;5033674;28;20033;-76
2022/01/20 10:27:54;;;;;;;24.45;4.72;;;22.20;95.60;;;;;;5034406;28;20576;-77
2022/01/20 10:30:25;;;;;;;23.63;5.35;;;22.10;95.60;;;;;;5033674;28;20072;-74
2022/01/20 10:32:59;;;;;;;23.75;5.15;;;22.00;95.80;;;;;;5033788;28;20076;-71
2022/01/20 10:35:33;;;;;;;18.92;4.50;;;21.90;95.90;;;;;;5033868;28;20017;-77
2022/01/20 10:38:12;;;;;;;23.17;4.60;;;21.90;96.20;;;;;;5033631;28;20091;-74
2022/01/20 10:40:56;;;;;;;17.73;3.53;;;21.90;96.20;;;;;;5033850;28;20386;-78
2022/01/20 10:43:33;;;;;;;29.15;4.03;;;21.90;96.10;;;;;;5033432;28;20062;-78
2022/01/20 10:46:13;;;;;;;23.45;5.38;;;21.90;96.00;;;;;;5034057;28;20536;-78
2022/01/20 10:48:41;;;;;;;14.98;3.63;;;21.90;96.00;;;;;;5034045;28;20423;-78
2022/01/20 10:51:22;;;;;;;29.48;6.05;;;21.90;96.00;;;;;;5033890;28;20389;-77
2022/01/20 10:54:12;;;;;;;21.33;4.07;;;21.80;96.00;;;;;;5033436;28;20024;-75
2022/01/20 10:57:00;;;;;;;20.27;4.45;;;21.90;95.80;;;;;;5033694;28;20032;-76
2022/01/20 10:59:27;;;;;;;28.13;5.80;;;21.90;95.70;;;;;;5033748;28;20030;-77
2022/01/20 11:02:11;;;;;;;27.45;4.55;;;21.90;95.60;;;;;;5033524;28;20028;-77
2022/01/20 11:04:39;;;;;;;18.27;3.50;;;22.00;95.60;;;;;;5033090;28;20430;-75
2022/01/20 11:07:08;;;;;;;21.88;3.78;;;21.90;95.40;;;;;;5033196;28;20065;-65
2022/01/20 11:09:40;;;;;;;18.90;3.17;;;21.90;95.50;;;;;;5033470;28;20496;-75
2022/01/20 11:12:07;;;;;;;;;;;21.90;95.40;;;;;;5033472;28;20044;-68
2022/01/20 11:14:35;;;;;;;23.70;4.30;;;21.90;95.50;;;;;;5032971;28;20353;-72
2022/01/20 11:17:04;;;;;;;22.60;5.38;;;22.00;95.40;;;;;;5033242;28;20104;-72
2022/01/20 11:19:40;;;;;;;17.33;3.50;;;22.00;95.50;;;;;;5033409;28;20021;-77
2022/01/20 11:22:13;;;;;;;19.08;4.22;;;22.00;95.70;;;;;;5033069;28;20429;-80
2022/01/20 11:24:42;;;;;;;22.58;3.92;;;22.00;95.80;;;;;;5033128;28;20037;-77
2022/01/20 11:27:12;;;;;;;24.33;4.03;;;21.90;96.60;;;;;;5033073;28;20224;-78
2022/01/20 11:29:45;;;;;;;21.80;4.22;;;21.90;97.20;;;;;;5033270;28;20445;-67
2022/01/20 11:32:17;;;;;;;20.55;4.50;;;21.90;97.70;;;;;;5033066;28;20386;-78
2022/01/20 11:35:16;;;;;;;29.17;4.85;;;21.90;98.30;;;;;;5032536;28;20477;-67
2022/01/20 11:37:55;;;;;;;20.58;3.95;;;21.60;99.30;;;;;;5033036;28;20112;-78
2022/01/20 11:40:24;;;;;;;26.20;6.28;;;21.40;99.90;;;;;;5032839;28;20025;-70
2022/01/20 11:43:07;;;;;;;25.15;4.60;;;21.20;99.90;;;;;;5032884;28;20462;-69
2022/01/20 11:45:50;;;;;;;18.55;3.95;;;21.10;99.90;;;;;;5032843;28;20390;-77
2022/01/20 11:48:21;;;;;;;21.85;4.07;;;21.10;99.90;;;;;;5032960;28;20033;-76
2022/01/20 11:51:08;;;;;;;19.83;4.47;;;21.00;99.90;;;;;;5024122;28;20034;-74
2022/01/20 11:53:41;;;;;;;27.55;4.35;;;21.00;99.90;;;;;;5023260;28;20080;-71
2022/01/20 11:56:10;;;;;;;23.30;5.53;;;20.90;99.90;;;;;;5022523;28;20022;-76
2022/01/20 11:58:39;;;;;;;22.58;4.03;;;20.90;99.90;;;;;;5021457;28;20030;-77
2022/01/20 12:01:10;;;;;;;19.38;4.25;;;20.90;99.90;;;;;;5022813;28;20031;-76
2022/01/20 12:03:49;;;;;;;27.37;5.37;;;21.00;99.90;;;;;;5023551;28;20025;-78
2022/01/20 12:06:22;;;;;;;26.17;5.82;;;20.90;99.90;;;;;;5023172;28;20054;-76
2022/01/20 12:08:54;;;;;;;25.35;4.97;;;21.00;99.90;;;;;;5022355;28;20028;-76
2022/01/20 12:11:33;;;;;;;18.08;3.97;;;21.00;99.90;;;;;;5021691;28;20084;-74
2022/01/20 12:14:00;;;;;;;24.35;5.13;;;21.00;99.90;;;;;;5021064;28;20022;-79
2022/01/20 12:16:27;;;;;;;21.73;4.88;;;21.00;99.90;;;;;;5022298;28;20025;-75
2022/01/20 12:18:58;;;;;;;18.13;3.85;;;21.00;99.90;;;;;;5022926;28;20014;-76
2022/01/20 12:21:27;;;;;;;24.02;4.10;;;21.00;99.90;;;;;;5021514;28;20029;-76
2022/01/20 12:23:56;;;;;;;24.98;4.93;;;21.10;99.90;;;;;;5021177;28;20018;-72
2022/01/20 12:26:24;;;;;;;21.27;4.05;;;21.10;99.90;;;;;;5022462;28;20040;-77
2022/01/20 12:29:03;;;;;;;21.48;4.75;;;21.10;99.90;;;;;;5022364;28;20025;-75
2022/01/20 12:31:32;;;;;;;21.02;3.97;;;21.10;99.90;;;;;;5021994;28;20014;-75
2022/01/20 12:33:59;;;;;;;21.80;5.45;;;21.20;99.90;;;;;;5020832;28;20045;-73
2022/01/20 12:36:27;;;;;;;17.60;4.03;;;21.30;99.90;;;;;;5022082;28;20052;-77
2022/01/20 12:38:54;;;;;;;20.85;3.83;;;21.40;99.90;;;;;;5022717;28;20029;-77
2022/01/20 12:41:24;;;;;;;25.45;4.78;;;21.50;99.80;;;;;;5023047;28;20044;-77
2022/01/20 12:44:04;;;;;;;21.38;4.35;;;21.50;99.70;;;;;;5021944;28;20096;-78
2022/01/20 12:46:37;;;;;;;24.13;3.13;;;21.50;99.50;;;;;;5022007;28;20114;-77
2022/01/20 12:49:14;;;;;;;21.50;3.50;;;21.50;99.30;;;;;;5020700;28;20478;-77
2022/01/20 12:51:42;;;;;;;16.25;2.92;;;21.50;99.10;;;;;;5020463;28;20097;-77
2022/01/20 12:54:21;;;;;;;19.60;3.95;;;21.50;99.00;;;;;;5021443;28;20017;-78
2022/01/20 12:56:51;;;;;;;21.50;4.05;;;21.50;99.10;;;;;;5021151;28;20018;-79
2022/01/20 12:59:30;;;;;;;20.58;4.13;;;21.50;98.90;;;;;;5020300;28;20097;-76
2022/01/20 13:02:06;;;;;;;15.73;3.53;;;21.50;98.70;;;;;;5020288;28;20025;-76
2022/01/20 13:04:35;;;;;;;18.70;3.88;;;21.40;98.80;;;;;;5020542;28;20028;-77
2022/01/20 13:07:03;;;;;;;19.05;3.65;;;21.50;98.80;;;;;;5020062;28;20125;-77
2022/01/20 13:09:42;;;;;;;21.42;4.75;;;21.50;98.80;;;;;;5020926;28;20043;-77
2022/01/20 13:12:11;;;;;;;21.85;6.05;;;21.50;99.40;;;;;;5021352;28;20502;-75
2022/01/20 13:14:48;;;;;;;22.52;3.70;;;21.50;99.50;;;;;;5020146;28;20113;-74
2022/01/20 13:17:28;;;;;;;21.67;5.03;;;21.40;99.90;;;;;;5020319;28;20022;-77
2022/01/20 13:19:58;;;;;;;20.58;4.30;;;21.40;99.90;;;;;;5021877;28;20029;-77
2022/01/20 13:22:53;;;;;;;16.15;4.15;;;21.40;99.90;;;;;;5020520;28;20030;-76
2022/01/20 13:25:26;;;;;;;23.15;4.60;;;21.30;99.90;;;;;;5021869;28;20432;-76
2022/01/20 13:28:06;;;;;;;26.38;5.43;;;21.20;99.90;;;;;;5021981;28;20025;-76
2022/01/20 13:30:47;;;;;;;21.48;5.57;;;21.10;99.90;;;;;;5018396;28;20025;-77
2022/01/20 13:33:25;;;;;;;24.08;4.00;;;21.10;99.90;;;;;;5021689;28;20026;-76
2022/01/20 13:36:00;;;;;;;22.38;4.65;;;21.00;99.90;;;;;;5021516;28;20088;-77
2022/01/20 13:38:41;;;;;;;17.63;3.42;;;21.00;99.90;;;;;;5021062;28;20014;-79
2022/01/20 13:41:14;;;;;;;25.95;5.40;;;21.00;99.90;;;;;;5021084;28;20033;-78
2022/01/20 13:46:47;;;;;;;22.67;5.15;;;20.90;99.90;;;;;;5023169;28;20048;-78
2022/01/20 13:49:21;;;;;;;26.38;5.90;;;20.90;99.90;;;;;;5030963;28;20053;-79
2022/01/20 13:51:59;;;;;;;22.05;4.15;;;20.90;99.90;;;;;;5030684;28;20072;-77
2022/01/20 13:54:47;;;;;;;27.70;5.63;;;20.90;99.90;;;;;;5031157;28;20482;-77
2022/01/20 13:57:15;;;;;;;37.35;6.85;;;20.90;99.90;;;;;;5031574;28;20423;-77